sensor_id;sensor_type;location;lat;lon;timestamp;P1;durP1;ratioP1;P2;durP2;ratioP2
47429;SDS011;33181;49.246;7.372;2022-10-31T00:01:11;17.13;;;10.67;;
47429;SDS011;33181;49.246;7.372;2022-10-31T00:03:43;13.57;;;10.10;;
47429;SDS011;33181;49.246;7.372;2022-10-31T00:06:09;17.60;;;11.20;;
47429;SDS011;33181;49.246;7.372;2022-10-31T00:08:34;16.63;;;10.47;;
47429;SDS011;33181;49.246;7.372;2022-10-31T00:11:00;14.57;;;9.90;;
47429;SDS011;33181;49.246;7.372;2022-10-31T00:13:26;12.50;;;8.33;;
47429;SDS011;33181;49.246;7.372;2022-10-31T00:15:52;13.03;;;8.47;;
47429;SDS011;33181;49.246;7.372;2022-10-31T00:18:18;11.50;;;8.37;;
47429;SDS011;33181;49.246;7.372;2022-10-31T00:20:44;14.43;;;9.43;;
47429;SDS011;33181;49.246;7.372;2022-10-31T00:23:10;15.00;;;8.43;;
47429;SDS011;33181;49.246;7.372;2022-10-31T00:25:37;20.53;;;9.70;;
47429;SDS011;33181;49.246;7.372;2022-10-31T00:28:05;14.33;;;8.07;;
47429;SDS011;33181;49.246;7.372;2022-10-31T00:30:32;15.00;;;8.20;;
47429;SDS011;33181;49.246;7.372;2022-10-31T00:32:59;11.20;;;8.03;;
47429;SDS011;33181;49.246;7.372;2022-10-31T00:35:24;10.63;;;7.83;;
47429;SDS011;33181;49.246;7.372;2022-10-31T00:37:51;13.37;;;8.60;;
47429;SDS011;33181;49.246;7.372;2022-10-31T00:40:17;18.27;;;8.53;;
47429;SDS011;33181;49.246;7.372;2022-10-31T00:42:43;15.47;;;8.80;;
47429;SDS011;33181;49.246;7.372;2022-10-31T00:45:09;12.90;;;8.60;;
47429;SDS011;33181;49.246;7.372;2022-10-31T00:47:35;10.80;;;7.23;;
47429;SDS011;33181;49.246;7.372;2022-10-31T00:50:01;14.80;;;8.60;;
47429;SDS011;33181;49.246;7.372;2022-10-31T00:52:29;13.40;;;8.30;;
47429;SDS011;33181;49.246;7.372;2022-10-31T00:54:55;18.30;;;8.53;;
47429;SDS011;33181;49.246;7.372;2022-10-31T00:57:20;17.03;;;9.20;;
47429;SDS011;33181;49.246;7.372;2022-10-31T00:59:46;12.40;;;8.63;;
47429;SDS011;33181;49.246;7.372;2022-10-31T01:02:12;21.53;;;9.73;;
47429;SDS011;33181;49.246;7.372;2022-10-31T01:04:38;14.90;;;9.00;;
47429;SDS011;33181;49.246;7.372;2022-10-31T01:07:03;16.53;;;9.77;;
47429;SDS011;33181;49.246;7.372;2022-10-31T01:09:29;13.37;;;8.10;;
47429;SDS011;33181;49.246;7.372;2022-10-31T01:11:55;12.30;;;8.07;;
47429;SDS011;33181;49.246;7.372;2022-10-31T01:14:20;12.60;;;8.43;;
47429;SDS011;33181;49.246;7.372;2022-10-31T01:16:46;11.27;;;7.83;;
47429;SDS011;33181;49.246;7.372;2022-10-31T01:19:12;11.70;;;7.83;;
47429;SDS011;33181;49.246;7.372;2022-10-31T01:21:38;11.27;;;7.70;;
47429;SDS011;33181;49.246;7.372;2022-10-31T01:24:04;11.93;;;8.17;;
47429;SDS011;33181;49.246;7.372;2022-10-31T01:26:31;10.10;;;7.73;;
47429;SDS011;33181;49.246;7.372;2022-10-31T01:28:58;12.47;;;8.00;;
47429;SDS011;33181;49.246;7.372;2022-10-31T01:31:28;13.77;;;8.20;;
47429;SDS011;33181;49.246;7.372;2022-10-31T01:33:56;10.80;;;7.77;;
47429;SDS011;33181;49.246;7.372;2022-10-31T01:36:30;13.20;;;8.50;;
47429;SDS011;33181;49.246;7.372;2022-10-31T01:39:05;14.77;;;8.50;;
47429;SDS011;33181;49.246;7.372;2022-10-31T01:41:38;12.37;;;8.87;;
47429;SDS011;33181;49.246;7.372;2022-10-31T01:46:40;13.97;;;8.30;;
47429;SDS011;33181;49.246;7.372;2022-10-31T01:49:18;15.43;;;8.57;;
47429;SDS011;33181;49.246;7.372;2022-10-31T01:54:51;13.13;;;9.00;;
47429;SDS011;33181;49.246;7.372;2022-10-31T01:57:26;12.80;;;8.37;;
47429;SDS011;33181;49.246;7.372;2022-10-31T01:59:55;10.67;;;7.77;;
47429;SDS011;33181;49.246;7.372;2022-10-31T02:02:26;10.40;;;8.30;;
47429;SDS011;33181;49.246;7.372;2022-10-31T02:04:55;13.63;;;8.40;;
47429;SDS011;33181;49.246;7.372;2022-10-31T02:07:25;19.80;;;8.67;;
47429;SDS011;33181;49.246;7.372;2022-10-31T02:10:03;17.33;;;7.90;;
47429;SDS011;33181;49.246;7.372;2022-10-31T02:12:30;13.10;;;7.40;;
47429;SDS011;33181;49.246;7.372;2022-10-31T02:14:57;10.40;;;6.80;;
47429;SDS011;33181;49.246;7.372;2022-10-31T02:17:25;9.93;;;6.70;;
47429;SDS011;33181;49.246;7.372;2022-10-31T02:32:12;9.03;;;7.10;;
47429;SDS011;33181;49.246;7.372;2022-10-31T02:38:02;11.97;;;7.03;;
47429;SDS011;33181;49.246;7.372;2022-10-31T02:47:18;9.03;;;6.70;;
47429;SDS011;33181;49.246;7.372;2022-10-31T02:52:50;13.70;;;6.87;;
47429;SDS011;33181;49.246;7.372;2022-10-31T02:58:10;13.27;;;7.73;;
47429;SDS011;33181;49.246;7.372;2022-10-31T03:00:43;13.20;;;7.23;;
47429;SDS011;33181;49.246;7.372;2022-10-31T03:06:30;11.10;;;7.30;;
47429;SDS011;33181;49.246;7.372;2022-10-31T03:09:03;11.60;;;8.00;;
47429;SDS011;33181;49.246;7.372;2022-10-31T03:11:48;17.17;;;6.93;;
47429;SDS011;33181;49.246;7.372;2022-10-31T03:14:23;12.93;;;6.60;;
47429;SDS011;33181;49.246;7.372;2022-10-31T03:16:59;11.00;;;7.20;;
47429;SDS011;33181;49.246;7.372;2022-10-31T03:19:32;12.33;;;7.70;;
47429;SDS011;33181;49.246;7.372;2022-10-31T03:22:07;11.97;;;6.70;;
47429;SDS011;33181;49.246;7.372;2022-10-31T03:24:42;13.63;;;8.03;;
47429;SDS011;33181;49.246;7.372;2022-10-31T03:27:12;10.27;;;7.37;;
47429;SDS011;33181;49.246;7.372;2022-10-31T03:29:42;10.90;;;7.30;;
47429;SDS011;33181;49.246;7.372;2022-10-31T03:32:32;11.97;;;7.37;;
47429;SDS011;33181;49.246;7.372;2022-10-31T03:35:06;13.53;;;8.00;;
47429;SDS011;33181;49.246;7.372;2022-10-31T03:37:35;12.53;;;7.70;;
47429;SDS011;33181;49.246;7.372;2022-10-31T03:40:04;14.27;;;8.80;;
47429;SDS011;33181;49.246;7.372;2022-10-31T03:42:33;11.00;;;7.93;;
47429;SDS011;33181;49.246;7.372;2022-10-31T03:48:04;13.13;;;8.20;;
47429;SDS011;33181;49.246;7.372;2022-10-31T03:50:35;10.30;;;6.60;;
47429;SDS011;33181;49.246;7.372;2022-10-31T03:53:41;12.57;;;7.60;;
47429;SDS011;33181;49.246;7.372;2022-10-31T03:56:35;12.10;;;6.97;;
47429;SDS011;33181;49.246;7.372;2022-10-31T03:59:17;11.67;;;6.40;;
47429;SDS011;33181;49.246;7.372;2022-10-31T04:02:02;9.73;;;6.43;;
47429;SDS011;33181;49.246;7.372;2022-10-31T04:04:33;11.53;;;7.20;;
47429;SDS011;33181;49.246;7.372;2022-10-31T04:07:00;10.47;;;6.90;;
47429;SDS011;33181;49.246;7.372;2022-10-31T04:09:28;18.20;;;6.90;;
47429;SDS011;33181;49.246;7.372;2022-10-31T04:11:59;14.77;;;7.60;;
47429;SDS011;33181;49.246;7.372;2022-10-31T04:14:27;12.13;;;7.23;;
47429;SDS011;33181;49.246;7.372;2022-10-31T04:16:56;12.87;;;7.47;;
47429;SDS011;33181;49.246;7.372;2022-10-31T04:19:22;8.80;;;6.70;;
47429;SDS011;33181;49.246;7.372;2022-10-31T04:21:48;9.20;;;6.40;;
47429;SDS011;33181;49.246;7.372;2022-10-31T04:24:13;9.80;;;6.40;;
47429;SDS011;33181;49.246;7.372;2022-10-31T04:26:39;10.87;;;6.77;;
47429;SDS011;33181;49.246;7.372;2022-10-31T04:29:05;15.30;;;6.63;;
47429;SDS011;33181;49.246;7.372;2022-10-31T04:31:31;13.20;;;7.13;;
47429;SDS011;33181;49.246;7.372;2022-10-31T04:33:56;11.57;;;7.43;;
47429;SDS011;33181;49.246;7.372;2022-10-31T04:36:22;12.03;;;7.40;;
47429;SDS011;33181;49.246;7.372;2022-10-31T04:38:48;11.57;;;6.97;;
47429;SDS011;33181;49.246;7.372;2022-10-31T04:41:14;15.00;;;7.10;;
47429;SDS011;33181;49.246;7.372;2022-10-31T04:43:39;11.53;;;7.37;;
47429;SDS011;33181;49.246;7.372;2022-10-31T04:46:05;12.33;;;7.10;;
47429;SDS011;33181;49.246;7.372;2022-10-31T04:48:31;14.00;;;7.50;;
47429;SDS011;33181;49.246;7.372;2022-10-31T04:51:00;8.80;;;7.00;;
47429;SDS011;33181;49.246;7.372;2022-10-31T04:53:26;9.70;;;7.30;;
47429;SDS011;33181;49.246;7.372;2022-10-31T04:55:52;10.17;;;7.10;;
47429;SDS011;33181;49.246;7.372;2022-10-31T04:58:18;11.53;;;7.20;;
47429;SDS011;33181;49.246;7.372;2022-10-31T05:00:44;11.50;;;6.70;;
47429;SDS011;33181;49.246;7.372;2022-10-31T05:03:09;11.70;;;6.90;;
47429;SDS011;33181;49.246;7.372;2022-10-31T05:05:35;12.70;;;7.00;;
47429;SDS011;33181;49.246;7.372;2022-10-31T05:08:01;10.70;;;6.27;;
47429;SDS011;33181;49.246;7.372;2022-10-31T05:10:27;7.87;;;5.83;;
47429;SDS011;33181;49.246;7.372;2022-10-31T05:12:55;11.43;;;5.97;;
47429;SDS011;33181;49.246;7.372;2022-10-31T05:15:24;11.30;;;6.70;;
47429;SDS011;33181;49.246;7.372;2022-10-31T05:17:52;9.73;;;6.20;;
47429;SDS011;33181;49.246;7.372;2022-10-31T05:20:20;13.60;;;7.20;;
47429;SDS011;33181;49.246;7.372;2022-10-31T05:22:49;11.50;;;6.37;;
47429;SDS011;33181;49.246;7.372;2022-10-31T05:25:18;8.67;;;6.10;;
47429;SDS011;33181;49.246;7.372;2022-10-31T05:27:46;15.70;;;6.17;;
47429;SDS011;33181;49.246;7.372;2022-10-31T05:30:16;9.50;;;6.43;;
47429;SDS011;33181;49.246;7.372;2022-10-31T05:32:46;10.63;;;6.50;;
47429;SDS011;33181;49.246;7.372;2022-10-31T05:35:15;11.83;;;6.57;;
47429;SDS011;33181;49.246;7.372;2022-10-31T05:37:44;12.77;;;6.43;;
47429;SDS011;33181;49.246;7.372;2022-10-31T05:40:11;9.43;;;6.90;;
47429;SDS011;33181;49.246;7.372;2022-10-31T05:42:39;8.43;;;5.90;;
47429;SDS011;33181;49.246;7.372;2022-10-31T05:45:10;14.20;;;6.93;;
47429;SDS011;33181;49.246;7.372;2022-10-31T05:47:41;11.07;;;7.30;;
47429;SDS011;33181;49.246;7.372;2022-10-31T05:50:07;12.20;;;7.07;;
47429;SDS011;33181;49.246;7.372;2022-10-31T05:52:34;12.30;;;6.73;;
47429;SDS011;33181;49.246;7.372;2022-10-31T05:55:01;8.57;;;5.67;;
47429;SDS011;33181;49.246;7.372;2022-10-31T05:57:27;19.30;;;6.83;;
47429;SDS011;33181;49.246;7.372;2022-10-31T05:59:54;9.20;;;6.60;;
47429;SDS011;33181;49.246;7.372;2022-10-31T06:02:20;9.67;;;6.60;;
47429;SDS011;33181;49.246;7.372;2022-10-31T06:04:46;9.10;;;6.10;;
47429;SDS011;33181;49.246;7.372;2022-10-31T06:07:12;10.77;;;6.77;;
47429;SDS011;33181;49.246;7.372;2022-10-31T06:09:38;11.17;;;6.63;;
47429;SDS011;33181;49.246;7.372;2022-10-31T06:12:04;10.10;;;6.50;;
47429;SDS011;33181;49.246;7.372;2022-10-31T06:14:30;14.70;;;7.33;;
47429;SDS011;33181;49.246;7.372;2022-10-31T06:16:55;8.23;;;6.57;;
47429;SDS011;33181;49.246;7.372;2022-10-31T06:19:21;10.00;;;6.53;;
47429;SDS011;33181;49.246;7.372;2022-10-31T06:21:47;12.40;;;6.90;;
47429;SDS011;33181;49.246;7.372;2022-10-31T06:24:13;12.63;;;6.90;;
47429;SDS011;33181;49.246;7.372;2022-10-31T06:26:39;9.80;;;6.97;;
47429;SDS011;33181;49.246;7.372;2022-10-31T06:29:06;9.20;;;6.97;;
47429;SDS011;33181;49.246;7.372;2022-10-31T06:31:32;12.80;;;7.30;;
47429;SDS011;33181;49.246;7.372;2022-10-31T06:33:57;17.00;;;7.50;;
47429;SDS011;33181;49.246;7.372;2022-10-31T06:36:23;12.47;;;7.47;;
47429;SDS011;33181;49.246;7.372;2022-10-31T06:38:49;17.30;;;8.07;;
47429;SDS011;33181;49.246;7.372;2022-10-31T06:41:15;15.30;;;8.30;;
47429;SDS011;33181;49.246;7.372;2022-10-31T06:43:40;13.47;;;7.97;;
47429;SDS011;33181;49.246;7.372;2022-10-31T06:46:06;14.77;;;8.03;;
47429;SDS011;33181;49.246;7.372;2022-10-31T06:48:32;13.33;;;8.57;;
47429;SDS011;33181;49.246;7.372;2022-10-31T06:50:58;12.17;;;7.80;;
47429;SDS011;33181;49.246;7.372;2022-10-31T06:53:25;18.63;;;7.90;;
47429;SDS011;33181;49.246;7.372;2022-10-31T06:55:53;10.40;;;7.97;;
47429;SDS011;33181;49.246;7.372;2022-10-31T06:58:21;13.37;;;8.23;;
47429;SDS011;33181;49.246;7.372;2022-10-31T07:00:47;13.23;;;7.60;;
47429;SDS011;33181;49.246;7.372;2022-10-31T07:03:13;10.20;;;8.37;;
47429;SDS011;33181;49.246;7.372;2022-10-31T07:05:40;14.83;;;7.80;;
47429;SDS011;33181;49.246;7.372;2022-10-31T07:08:09;15.40;;;8.07;;
47429;SDS011;33181;49.246;7.372;2022-10-31T07:10:37;10.77;;;7.57;;
47429;SDS011;33181;49.246;7.372;2022-10-31T07:13:06;14.27;;;7.90;;
47429;SDS011;33181;49.246;7.372;2022-10-31T07:15:38;16.27;;;8.27;;
47429;SDS011;33181;49.246;7.372;2022-10-31T07:18:05;11.47;;;7.80;;
47429;SDS011;33181;49.246;7.372;2022-10-31T07:20:34;14.63;;;7.40;;
47429;SDS011;33181;49.246;7.372;2022-10-31T07:23:00;14.20;;;9.13;;
47429;SDS011;33181;49.246;7.372;2022-10-31T07:25:26;15.10;;;7.53;;
47429;SDS011;33181;49.246;7.372;2022-10-31T07:27:52;12.30;;;7.20;;
47429;SDS011;33181;49.246;7.372;2022-10-31T07:30:18;9.50;;;6.80;;
47429;SDS011;33181;49.246;7.372;2022-10-31T07:32:45;11.17;;;8.07;;
47429;SDS011;33181;49.246;7.372;2022-10-31T07:35:14;11.30;;;7.87;;
47429;SDS011;33181;49.246;7.372;2022-10-31T07:37:49;11.30;;;7.67;;
47429;SDS011;33181;49.246;7.372;2022-10-31T07:40:15;14.87;;;8.40;;
47429;SDS011;33181;49.246;7.372;2022-10-31T07:42:43;13.37;;;7.80;;
47429;SDS011;33181;49.246;7.372;2022-10-31T07:45:13;15.07;;;8.90;;
47429;SDS011;33181;49.246;7.372;2022-10-31T07:47:42;15.10;;;7.50;;
47429;SDS011;33181;49.246;7.372;2022-10-31T07:50:11;9.70;;;6.30;;
47429;SDS011;33181;49.246;7.372;2022-10-31T07:52:43;11.73;;;6.57;;
47429;SDS011;33181;49.246;7.372;2022-10-31T07:55:09;10.00;;;7.27;;
47429;SDS011;33181;49.246;7.372;2022-10-31T07:57:35;10.57;;;7.57;;
47429;SDS011;33181;49.246;7.372;2022-10-31T08:00:03;11.43;;;6.50;;
47429;SDS011;33181;49.246;7.372;2022-10-31T08:02:34;13.17;;;7.33;;
47429;SDS011;33181;49.246;7.372;2022-10-31T08:05:00;11.80;;;6.83;;
47429;SDS011;33181;49.246;7.372;2022-10-31T08:07:27;9.50;;;6.67;;
47429;SDS011;33181;49.246;7.372;2022-10-31T08:09:53;11.93;;;6.27;;
47429;SDS011;33181;49.246;7.372;2022-10-31T08:12:20;19.03;;;7.97;;
47429;SDS011;33181;49.246;7.372;2022-10-31T08:14:46;8.73;;;5.97;;
47429;SDS011;33181;49.246;7.372;2022-10-31T08:17:12;12.20;;;6.97;;
47429;SDS011;33181;49.246;7.372;2022-10-31T08:19:38;10.43;;;6.27;;
47429;SDS011;33181;49.246;7.372;2022-10-31T08:22:04;10.53;;;6.70;;
47429;SDS011;33181;49.246;7.372;2022-10-31T08:24:29;9.17;;;6.40;;
47429;SDS011;33181;49.246;7.372;2022-10-31T08:26:55;9.70;;;6.50;;
47429;SDS011;33181;49.246;7.372;2022-10-31T08:29:21;12.17;;;6.83;;
47429;SDS011;33181;49.246;7.372;2022-10-31T08:31:47;14.03;;;9.20;;
47429;SDS011;33181;49.246;7.372;2022-10-31T08:34:12;14.87;;;9.30;;
47429;SDS011;33181;49.246;7.372;2022-10-31T08:36:38;12.53;;;8.90;;
47429;SDS011;33181;49.246;7.372;2022-10-31T08:39:04;16.00;;;10.00;;
47429;SDS011;33181;49.246;7.372;2022-10-31T08:41:29;13.77;;;8.23;;
47429;SDS011;33181;49.246;7.372;2022-10-31T08:43:55;17.60;;;8.70;;
47429;SDS011;33181;49.246;7.372;2022-10-31T08:46:21;16.93;;;8.13;;
47429;SDS011;33181;49.246;7.372;2022-10-31T08:48:47;12.20;;;8.37;;
47429;SDS011;33181;49.246;7.372;2022-10-31T08:51:13;12.00;;;7.70;;
47429;SDS011;33181;49.246;7.372;2022-10-31T08:53:39;14.77;;;9.03;;
47429;SDS011;33181;49.246;7.372;2022-10-31T08:56:05;13.23;;;7.70;;
47429;SDS011;33181;49.246;7.372;2022-10-31T08:58:31;11.87;;;7.43;;
47429;SDS011;33181;49.246;7.372;2022-10-31T09:00:58;12.93;;;6.90;;
47429;SDS011;33181;49.246;7.372;2022-10-31T09:03:27;16.77;;;7.87;;
47429;SDS011;33181;49.246;7.372;2022-10-31T09:05:56;10.83;;;7.20;;
47429;SDS011;33181;49.246;7.372;2022-10-31T09:08:25;12.87;;;7.63;;
47429;SDS011;33181;49.246;7.372;2022-10-31T09:10:51;13.33;;;7.50;;
47429;SDS011;33181;49.246;7.372;2022-10-31T09:13:20;8.70;;;6.50;;
47429;SDS011;33181;49.246;7.372;2022-10-31T09:15:47;13.10;;;7.60;;
47429;SDS011;33181;49.246;7.372;2022-10-31T09:18:15;14.93;;;8.23;;
47429;SDS011;33181;49.246;7.372;2022-10-31T09:20:45;12.50;;;7.97;;
47429;SDS011;33181;49.246;7.372;2022-10-31T09:23:14;13.27;;;8.83;;
47429;SDS011;33181;49.246;7.372;2022-10-31T09:25:42;15.90;;;7.80;;
47429;SDS011;33181;49.246;7.372;2022-10-31T09:28:12;16.20;;;7.50;;
47429;SDS011;33181;49.246;7.372;2022-10-31T09:30:40;14.67;;;8.67;;
47429;SDS011;33181;49.246;7.372;2022-10-31T09:33:09;14.33;;;9.57;;
47429;SDS011;33181;49.246;7.372;2022-10-31T09:35:37;17.00;;;8.73;;
47429;SDS011;33181;49.246;7.372;2022-10-31T09:38:04;14.10;;;8.53;;
47429;SDS011;33181;49.246;7.372;2022-10-31T09:43:39;15.73;;;8.13;;
47429;SDS011;33181;49.246;7.372;2022-10-31T09:46:25;14.00;;;7.73;;
47429;SDS011;33181;49.246;7.372;2022-10-31T09:49:24;11.90;;;7.60;;
47429;SDS011;33181;49.246;7.372;2022-10-31T09:52:20;12.87;;;7.40;;
47429;SDS011;33181;49.246;7.372;2022-10-31T09:54:57;10.20;;;7.50;;
47429;SDS011;33181;49.246;7.372;2022-10-31T09:57:38;14.57;;;8.00;;
47429;SDS011;33181;49.246;7.372;2022-10-31T10:00:06;20.43;;;7.90;;
47429;SDS011;33181;49.246;7.372;2022-10-31T10:02:57;13.57;;;7.47;;
47429;SDS011;33181;49.246;7.372;2022-10-31T10:08:39;12.53;;;7.70;;
47429;SDS011;33181;49.246;7.372;2022-10-31T10:23:43;11.70;;;6.70;;
47429;SDS011;33181;49.246;7.372;2022-10-31T10:26:21;17.70;;;6.90;;
47429;SDS011;33181;49.246;7.372;2022-10-31T10:28:57;13.93;;;6.50;;
47429;SDS011;33181;49.246;7.372;2022-10-31T10:31:42;11.50;;;7.17;;
47429;SDS011;33181;49.246;7.372;2022-10-31T10:34:17;18.57;;;6.77;;
47429;SDS011;33181;49.246;7.372;2022-10-31T10:37:01;14.93;;;6.47;;
47429;SDS011;33181;49.246;7.372;2022-10-31T10:39:39;11.83;;;7.00;;
47429;SDS011;33181;49.246;7.372;2022-10-31T10:42:14;12.87;;;6.67;;
47429;SDS011;33181;49.246;7.372;2022-10-31T10:45:00;12.53;;;5.90;;
47429;SDS011;33181;49.246;7.372;2022-10-31T10:48:27;10.80;;;6.00;;
47429;SDS011;33181;49.246;7.372;2022-10-31T10:51:22;11.63;;;7.20;;
47429;SDS011;33181;49.246;7.372;2022-10-31T11:00:18;12.97;;;7.30;;
47429;SDS011;33181;49.246;7.372;2022-10-31T11:02:51;13.03;;;8.20;;
47429;SDS011;33181;49.246;7.372;2022-10-31T11:05:21;13.63;;;7.90;;
47429;SDS011;33181;49.246;7.372;2022-10-31T11:08:03;14.17;;;8.23;;
47429;SDS011;33181;49.246;7.372;2022-10-31T11:10:31;13.13;;;7.50;;
47429;SDS011;33181;49.246;7.372;2022-10-31T11:18:42;10.60;;;6.93;;
47429;SDS011;33181;49.246;7.372;2022-10-31T11:23:50;18.20;;;6.90;;
47429;SDS011;33181;49.246;7.372;2022-10-31T11:26:36;9.97;;;6.60;;
47429;SDS011;33181;49.246;7.372;2022-10-31T11:29:05;10.33;;;6.27;;
47429;SDS011;33181;49.246;7.372;2022-10-31T11:31:54;12.23;;;6.70;;
47429;SDS011;33181;49.246;7.372;2022-10-31T11:34:27;12.27;;;6.60;;
47429;SDS011;33181;49.246;7.372;2022-10-31T11:37:10;10.80;;;6.37;;
47429;SDS011;33181;49.246;7.372;2022-10-31T11:40:00;12.37;;;7.23;;
47429;SDS011;33181;49.246;7.372;2022-10-31T11:42:38;15.50;;;7.40;;
47429;SDS011;33181;49.246;7.372;2022-10-31T11:45:16;11.90;;;7.50;;
47429;SDS011;33181;49.246;7.372;2022-10-31T11:47:59;14.20;;;6.37;;
47429;SDS011;33181;49.246;7.372;2022-10-31T11:50:29;10.07;;;7.00;;
47429;SDS011;33181;49.246;7.372;2022-10-31T11:53:03;12.27;;;7.67;;
47429;SDS011;33181;49.246;7.372;2022-10-31T11:55:38;12.13;;;7.07;;
47429;SDS011;33181;49.246;7.372;2022-10-31T11:58:21;10.67;;;7.27;;
47429;SDS011;33181;49.246;7.372;2022-10-31T12:00:51;9.70;;;6.37;;
47429;SDS011;33181;49.246;7.372;2022-10-31T12:06:23;16.03;;;8.20;;
47429;SDS011;33181;49.246;7.372;2022-10-31T12:08:56;13.87;;;7.73;;
47429;SDS011;33181;49.246;7.372;2022-10-31T12:16:50;13.70;;;7.57;;
47429;SDS011;33181;49.246;7.372;2022-10-31T12:19:32;13.90;;;6.93;;
47429;SDS011;33181;49.246;7.372;2022-10-31T12:32:20;12.83;;;7.30;;
47429;SDS011;33181;49.246;7.372;2022-10-31T12:41:09;20.10;;;8.13;;
47429;SDS011;33181;49.246;7.372;2022-10-31T12:58:49;13.30;;;7.67;;
47429;SDS011;33181;49.246;7.372;2022-10-31T13:01:23;14.27;;;7.50;;
47429;SDS011;33181;49.246;7.372;2022-10-31T13:06:49;15.87;;;7.27;;
47429;SDS011;33181;49.246;7.372;2022-10-31T13:09:31;12.17;;;7.17;;
47429;SDS011;33181;49.246;7.372;2022-10-31T13:12:11;10.20;;;6.50;;
47429;SDS011;33181;49.246;7.372;2022-10-31T13:14:44;11.60;;;6.50;;
47429;SDS011;33181;49.246;7.372;2022-10-31T13:17:27;9.90;;;5.70;;
47429;SDS011;33181;49.246;7.372;2022-10-31T13:25:58;9.70;;;5.13;;
47429;SDS011;33181;49.246;7.372;2022-10-31T13:28:44;10.50;;;5.20;;
47429;SDS011;33181;49.246;7.372;2022-10-31T13:31:22;11.47;;;5.03;;
47429;SDS011;33181;49.246;7.372;2022-10-31T13:33:49;10.30;;;4.93;;
47429;SDS011;33181;49.246;7.372;2022-10-31T13:36:48;9.00;;;5.00;;
47429;SDS011;33181;49.246;7.372;2022-10-31T13:45:23;12.00;;;5.93;;
47429;SDS011;33181;49.246;7.372;2022-10-31T13:50:41;12.27;;;5.23;;
47429;SDS011;33181;49.246;7.372;2022-10-31T13:55:44;15.33;;;6.70;;
47429;SDS011;33181;49.246;7.372;2022-10-31T14:01:00;10.60;;;5.90;;
47429;SDS011;33181;49.246;7.372;2022-10-31T14:03:46;11.80;;;6.53;;
47429;SDS011;33181;49.246;7.372;2022-10-31T14:06:23;11.27;;;5.90;;
47429;SDS011;33181;49.246;7.372;2022-10-31T14:09:21;11.27;;;5.80;;
47429;SDS011;33181;49.246;7.372;2022-10-31T14:12:08;13.53;;;6.10;;
47429;SDS011;33181;49.246;7.372;2022-10-31T14:14:51;10.20;;;6.10;;
47429;SDS011;33181;49.246;7.372;2022-10-31T14:17:23;14.40;;;6.77;;
47429;SDS011;33181;49.246;7.372;2022-10-31T14:19:59;12.30;;;6.20;;
47429;SDS011;33181;49.246;7.372;2022-10-31T14:22:46;12.10;;;6.30;;
47429;SDS011;33181;49.246;7.372;2022-10-31T14:27:58;12.37;;;6.40;;
47429;SDS011;33181;49.246;7.372;2022-10-31T14:30:27;8.87;;;6.03;;
47429;SDS011;33181;49.246;7.372;2022-10-31T14:32:57;14.67;;;6.13;;
47429;SDS011;33181;49.246;7.372;2022-10-31T14:35:29;13.37;;;5.57;;
47429;SDS011;33181;49.246;7.372;2022-10-31T14:44:41;13.17;;;6.80;;
47429;SDS011;33181;49.246;7.372;2022-10-31T14:53:49;8.40;;;5.90;;
47429;SDS011;33181;49.246;7.372;2022-10-31T14:56:34;12.80;;;6.50;;
47429;SDS011;33181;49.246;7.372;2022-10-31T14:59:08;9.90;;;6.73;;
47429;SDS011;33181;49.246;7.372;2022-10-31T15:01:39;11.90;;;6.50;;
47429;SDS011;33181;49.246;7.372;2022-10-31T15:04:15;13.87;;;6.03;;
47429;SDS011;33181;49.246;7.372;2022-10-31T15:06:49;15.07;;;6.00;;
47429;SDS011;33181;49.246;7.372;2022-10-31T15:09:39;10.40;;;5.83;;
47429;SDS011;33181;49.246;7.372;2022-10-31T15:12:41;10.30;;;5.60;;
47429;SDS011;33181;49.246;7.372;2022-10-31T15:15:13;8.30;;;5.90;;
47429;SDS011;33181;49.246;7.372;2022-10-31T15:17:46;13.43;;;6.47;;
47429;SDS011;33181;49.246;7.372;2022-10-31T15:20:18;18.20;;;9.60;;
47429;SDS011;33181;49.246;7.372;2022-10-31T15:22:51;25.63;;;10.03;;
47429;SDS011;33181;49.246;7.372;2022-10-31T15:25:22;12.03;;;7.80;;
47429;SDS011;33181;49.246;7.372;2022-10-31T15:27:50;10.97;;;7.53;;
47429;SDS011;33181;49.246;7.372;2022-10-31T15:30:25;11.20;;;7.47;;
47429;SDS011;33181;49.246;7.372;2022-10-31T15:32:52;14.00;;;7.83;;
47429;SDS011;33181;49.246;7.372;2022-10-31T15:37:53;12.20;;;6.50;;
47429;SDS011;33181;49.246;7.372;2022-10-31T15:40:21;11.40;;;6.40;;
47429;SDS011;33181;49.246;7.372;2022-10-31T15:42:51;13.17;;;6.63;;
47429;SDS011;33181;49.246;7.372;2022-10-31T15:45:24;13.33;;;7.33;;
47429;SDS011;33181;49.246;7.372;2022-10-31T15:53:21;12.00;;;8.23;;
47429;SDS011;33181;49.246;7.372;2022-10-31T15:56:08;13.20;;;8.37;;
47429;SDS011;33181;49.246;7.372;2022-10-31T15:58:42;15.50;;;8.50;;
47429;SDS011;33181;49.246;7.372;2022-10-31T16:01:24;12.90;;;8.47;;
47429;SDS011;33181;49.246;7.372;2022-10-31T16:04:15;15.13;;;8.13;;
47429;SDS011;33181;49.246;7.372;2022-10-31T16:07:01;14.20;;;9.33;;
47429;SDS011;33181;49.246;7.372;2022-10-31T16:09:53;14.40;;;8.90;;
47429;SDS011;33181;49.246;7.372;2022-10-31T16:12:36;15.80;;;8.93;;
47429;SDS011;33181;49.246;7.372;2022-10-31T16:15:12;13.37;;;8.57;;
47429;SDS011;33181;49.246;7.372;2022-10-31T16:17:42;13.70;;;8.53;;
47429;SDS011;33181;49.246;7.372;2022-10-31T16:20:18;16.97;;;9.73;;
47429;SDS011;33181;49.246;7.372;2022-10-31T16:22:53;12.50;;;8.40;;
47429;SDS011;33181;49.246;7.372;2022-10-31T16:25:35;19.67;;;8.70;;
47429;SDS011;33181;49.246;7.372;2022-10-31T16:28:15;12.67;;;8.53;;
47429;SDS011;33181;49.246;7.372;2022-10-31T16:30:47;14.90;;;9.33;;
47429;SDS011;33181;49.246;7.372;2022-10-31T16:38:59;15.40;;;8.67;;
47429;SDS011;33181;49.246;7.372;2022-10-31T16:41:25;15.73;;;8.30;;
47429;SDS011;33181;49.246;7.372;2022-10-31T16:43:51;11.80;;;8.30;;
47429;SDS011;33181;49.246;7.372;2022-10-31T16:46:22;14.50;;;9.47;;
47429;SDS011;33181;49.246;7.372;2022-10-31T16:48:50;15.93;;;9.60;;
47429;SDS011;33181;49.246;7.372;2022-10-31T16:51:17;13.43;;;9.57;;
47429;SDS011;33181;49.246;7.372;2022-10-31T16:53:43;17.80;;;11.30;;
47429;SDS011;33181;49.246;7.372;2022-10-31T16:56:18;15.67;;;11.13;;
47429;SDS011;33181;49.246;7.372;2022-10-31T16:58:52;19.93;;;13.00;;
47429;SDS011;33181;49.246;7.372;2022-10-31T17:01:18;21.90;;;14.63;;
47429;SDS011;33181;49.246;7.372;2022-10-31T17:03:44;17.57;;;13.10;;
47429;SDS011;33181;49.246;7.372;2022-10-31T17:06:13;21.40;;;13.37;;
47429;SDS011;33181;49.246;7.372;2022-10-31T17:08:39;22.97;;;17.17;;
47429;SDS011;33181;49.246;7.372;2022-10-31T17:11:05;23.13;;;14.40;;
47429;SDS011;33181;49.246;7.372;2022-10-31T17:13:39;18.87;;;13.47;;
47429;SDS011;33181;49.246;7.372;2022-10-31T17:16:05;21.63;;;13.90;;
47429;SDS011;33181;49.246;7.372;2022-10-31T17:18:31;22.60;;;15.30;;
47429;SDS011;33181;49.246;7.372;2022-10-31T17:20:57;19.40;;;13.73;;
47429;SDS011;33181;49.246;7.372;2022-10-31T17:23:26;21.73;;;14.10;;
47429;SDS011;33181;49.246;7.372;2022-10-31T17:25:53;28.07;;;15.40;;
47429;SDS011;33181;49.246;7.372;2022-10-31T17:28:19;25.60;;;15.93;;
47429;SDS011;33181;49.246;7.372;2022-10-31T17:30:45;23.50;;;14.50;;
47429;SDS011;33181;49.246;7.372;2022-10-31T17:33:12;18.43;;;13.50;;
47429;SDS011;33181;49.246;7.372;2022-10-31T17:35:40;22.53;;;14.70;;
47429;SDS011;33181;49.246;7.372;2022-10-31T17:38:09;19.63;;;14.37;;
47429;SDS011;33181;49.246;7.372;2022-10-31T17:40:36;21.97;;;14.77;;
47429;SDS011;33181;49.246;7.372;2022-10-31T17:43:05;24.20;;;15.63;;
47429;SDS011;33181;49.246;7.372;2022-10-31T17:45:32;27.87;;;14.10;;